sensor_id;sensor_type;location;lat;lon;timestamp;pressure;altitude;pressure_sealevel;temperature;humidity
35916;BME280;22010;47.558;10.218;2023-03-15T14:16:39;93260.19;;;20.20;56.13
35916;BME280;22010;47.558;10.218;2023-03-15T14:20:07;93255.72;;;20.08;55.99
35916;BME280;22010;47.558;10.218;2023-03-15T14:23:15;93256.63;;;20.02;55.75
35916;BME280;22010;47.558;10.218;2023-03-15T14:26:27;93260.09;;;19.96;55.57
35916;BME280;22010;47.558;10.218;2023-03-15T14:29:33;93263.66;;;20.02;55.39
35916;BME280;22010;47.558;10.218;2023-03-15T14:32:51;93260.44;;;20.00;55.34
35916;BME280;22010;47.558;10.218;2023-03-15T14:35:58;93252.84;;;19.98;55.09
35916;BME280;22010;47.558;10.218;2023-03-15T14:39:16;93255.69;;;19.97;55.09
35916;BME280;22010;47.558;10.218;2023-03-15T14:42:22;93253.50;;;19.94;54.89
35916;BME280;22010;47.558;10.218;2023-03-15T14:45:27;93253.72;;;19.92;54.97
35916;BME280;22010;47.558;10.218;2023-03-15T14:48:37;93249.53;;;19.91;54.99
35916;BME280;22010;47.558;10.218;2023-03-15T14:51:42;93253.16;;;19.90;55.02
35916;BME280;22010;47.558;10.218;2023-03-15T14:54:48;93245.34;;;19.90;54.99
35916;BME280;22010;47.558;10.218;2023-03-15T14:57:54;93252.59;;;19.88;54.98
35916;BME280;22010;47.558;10.218;2023-03-15T15:00:59;93248.38;;;19.87;54.75
35916;BME280;22010;47.558;10.218;2023-03-15T15:04:11;93248.38;;;19.87;55.00
35916;BME280;22010;47.558;10.218;2023-03-15T15:07:16;93243.38;;;19.86;54.87
35916;BME280;22010;47.558;10.218;2023-03-15T15:10:21;93245.19;;;19.85;55.03
35916;BME280;22010;47.558;10.218;2023-03-15T15:13:28;93244.63;;;19.83;54.99
35916;BME280;22010;47.558;10.218;2023-03-15T15:16:33;93248.25;;;19.82;54.68
35916;BME280;22010;47.558;10.218;2023-03-15T15:19:41;93243.84;;;19.82;54.87
35916;BME280;22010;47.558;10.218;2023-03-15T15:22:48;93249.63;;;19.85;55.00
35916;BME280;22010;47.558;10.218;2023-03-15T15:25:56;93247.66;;;19.80;54.74
35916;BME280;22010;47.558;10.218;2023-03-15T15:29:01;93250.06;;;19.81;54.67
35916;BME280;22010;47.558;10.218;2023-03-15T15:32:06;93242.00;;;19.83;54.90
35916;BME280;22010;47.558;10.218;2023-03-15T15:35:17;93239.53;;;19.88;54.57
35916;BME280;22010;47.558;10.218;2023-03-15T15:38:24;93247.09;;;19.78;54.90
35916;BME280;22010;47.558;10.218;2023-03-15T15:41:32;93244.72;;;19.76;55.16
35916;BME280;22010;47.558;10.218;2023-03-15T15:44:37;93237.91;;;19.75;54.94
35916;BME280;22010;47.558;10.218;2023-03-15T15:47:42;93234.69;;;19.73;54.88
35916;BME280;22010;47.558;10.218;2023-03-15T15:50:49;93240.84;;;19.79;54.89
35916;BME280;22010;47.558;10.218;2023-03-15T15:53:54;93243.47;;;19.79;54.78
35916;BME280;22010;47.558;10.218;2023-03-15T15:56:59;93247.66;;;19.80;54.59
35916;BME280;22010;47.558;10.218;2023-03-15T16:00:05;93250.00;;;19.70;55.05
35916;BME280;22010;47.558;10.218;2023-03-15T16:03:12;93252.63;;;19.70;54.80
35916;BME280;22010;47.558;10.218;2023-03-15T16:06:20;93262.50;;;19.68;54.99
35916;BME280;22010;47.558;10.218;2023-03-15T16:09:26;93269.72;;;19.66;55.24
35916;BME280;22010;47.558;10.218;2023-03-15T16:12:31;93276.53;;;19.67;54.82
35916;BME280;22010;47.558;10.218;2023-03-15T16:15:37;93270.56;;;19.78;54.96
35916;BME280;22010;47.558;10.218;2023-03-15T16:18:42;93274.50;;;19.69;55.24
35916;BME280;22010;47.558;10.218;2023-03-15T16:21:51;93281.19;;;19.65;55.07
35916;BME280;22010;47.558;10.218;2023-03-15T16:24:56;93287.41;;;19.64;55.17
35916;BME280;22010;47.558;10.218;2023-03-15T16:28:03;93293.06;;;19.61;55.19
35916;BME280;22010;47.558;10.218;2023-03-15T16:31:08;93287.84;;;19.61;54.96
35916;BME280;22010;47.558;10.218;2023-03-15T16:34:13;93299.28;;;19.60;55.05
35916;BME280;22010;47.558;10.218;2023-03-15T16:37:22;93295.88;;;19.59;55.17
35916;BME280;22010;47.558;10.218;2023-03-15T16:40:27;93299.28;;;19.60;55.09
35916;BME280;22010;47.558;10.218;2023-03-15T16:43:32;93299.50;;;19.58;55.11
35916;BME280;22010;47.558;10.218;2023-03-15T16:46:37;93307.53;;;19.56;55.00
35916;BME280;22010;47.558;10.218;2023-03-15T16:49:42;93309.56;;;19.54;55.09
35916;BME280;22010;47.558;10.218;2023-03-15T16:52:50;93316.56;;;19.54;55.25
35916;BME280;22010;47.558;10.218;2023-03-15T16:55:55;93318.38;;;19.53;55.02
35916;BME280;22010;47.558;10.218;2023-03-15T16:59:01;93326.44;;;19.52;55.30
35916;BME280;22010;47.558;10.218;2023-03-15T17:02:11;93321.22;;;19.52;55.21
35916;BME280;22010;47.558;10.218;2023-03-15T17:05:18;93328.47;;;19.50;55.22
35916;BME280;22010;47.558;10.218;2023-03-15T17:08:28;93343.72;;;17.57;38.53
35916;BME280;22010;47.558;10.218;2023-03-15T17:11:33;93350.00;;;16.83;56.88
35916;BME280;22010;47.558;10.218;2023-03-15T17:14:40;93349.31;;;18.82;54.17
35916;BME280;22010;47.558;10.218;2023-03-15T17:17:46;93349.94;;;19.27;53.26
35916;BME280;22010;47.558;10.218;2023-03-15T17:20:52;93356.78;;;19.46;52.69
35916;BME280;22010;47.558;10.218;2023-03-15T17:23:59;93359.72;;;19.56;52.20
35916;BME280;22010;47.558;10.218;2023-03-15T17:27:05;93349.25;;;19.63;52.37
35916;BME280;22010;47.558;10.218;2023-03-15T17:30:14;93362.22;;;19.70;52.47
35916;BME280;22010;47.558;10.218;2023-03-15T17:33:20;93363.59;;;19.72;52.36
35916;BME280;22010;47.558;10.218;2023-03-15T17:36:28;93363.16;;;19.75;52.00
35916;BME280;22010;47.558;10.218;2023-03-15T17:39:38;93367.38;;;19.76;52.29
35916;BME280;22010;47.558;10.218;2023-03-15T17:42:43;93368.72;;;19.79;52.20
35916;BME280;22010;47.558;10.218;2023-03-15T17:45:48;93378.16;;;19.80;52.21
35916;BME280;22010;47.558;10.218;2023-03-15T17:48:53;93372.94;;;19.80;51.97
35916;BME280;22010;47.558;10.218;2023-03-15T17:51:58;93372.75;;;19.81;52.11
35916;BME280;22010;47.558;10.218;2023-03-15T17:55:08;93371.94;;;19.81;52.16
35916;BME280;22010;47.558;10.218;2023-03-15T17:58:18;93373.53;;;19.82;52.34
35916;BME280;22010;47.558;10.218;2023-03-15T18:01:24;93385.56;;;19.83;52.04
35916;BME280;22010;47.558;10.218;2023-03-15T18:04:31;93390.78;;;19.83;52.32
35916;BME280;22010;47.558;10.218;2023-03-15T18:07:36;93395.22;;;19.82;52.06
35916;BME280;22010;47.558;10.218;2023-03-15T18:10:59;93396.81;;;19.83;52.29
35916;BME280;22010;47.558;10.218;2023-03-15T18:14:04;93398.97;;;19.87;52.16
35916;BME280;22010;47.558;10.218;2023-03-15T18:17:09;93394.97;;;19.84;51.89
35916;BME280;22010;47.558;10.218;2023-03-15T18:20:14;93401.00;;;19.85;52.37
35916;BME280;22010;47.558;10.218;2023-03-15T18:23:19;93394.31;;;20.07;51.71
35916;BME280;22010;47.558;10.218;2023-03-15T18:26:28;93393.31;;;20.08;51.31
35916;BME280;22010;47.558;10.218;2023-03-15T18:29:33;93405.59;;;20.07;51.62
35916;BME280;22010;47.558;10.218;2023-03-15T18:32:39;93403.75;;;20.08;51.50
35916;BME280;22010;47.558;10.218;2023-03-15T18:35:44;93404.56;;;20.08;51.65
35916;BME280;22010;47.558;10.218;2023-03-15T18:38:51;93406.38;;;20.08;51.71
